createdAt,value
2023-05-12T00:02:27.343Z,11.38
2023-05-12T00:07:31.427Z,11.31
2023-05-12T00:12:35.340Z,11.28
2023-05-12T00:17:39.398Z,11.20
2023-05-12T00:22:44.401Z,11.05
2023-05-12T00:27:49.039Z,10.98
2023-05-12T00:32:52.972Z,10.91
2023-05-12T00:37:57.209Z,10.86
2023-05-12T00:43:01.350Z,10.75
2023-05-12T00:48:07.764Z,10.69
2023-05-12T00:53:12.512Z,10.63
2023-05-12T00:58:16.895Z,10.61
2023-05-12T01:03:21.532Z,10.57
2023-05-12T01:08:26.291Z,10.49
2023-05-12T01:13:31.251Z,10.44
2023-05-12T01:18:38.060Z,10.39
2023-05-12T01:23:47.039Z,10.36
2023-05-12T01:28:52.166Z,10.28
2023-05-12T01:33:56.361Z,10.26
2023-05-12T01:39:00.673Z,10.28
2023-05-12T01:44:04.615Z,10.28
2023-05-12T01:49:08.436Z,10.27
2023-05-12T01:54:12.384Z,10.22
2023-05-12T01:59:16.216Z,10.15
2023-05-12T02:04:19.932Z,10.11
2023-05-12T02:09:23.752Z,9.99
2023-05-12T02:14:28.492Z,9.91
2023-05-12T02:19:32.827Z,9.88
2023-05-12T02:24:36.571Z,9.89
2023-05-12T02:29:41.592Z,9.90
2023-05-12T02:34:45.842Z,9.88
2023-05-12T02:39:50.093Z,9.85
2023-05-12T02:44:54.016Z,9.82
2023-05-12T02:50:00.981Z,9.71
2023-05-12T02:55:06.008Z,9.58
2023-05-12T03:00:12.232Z,9.48
2023-05-12T03:05:16.243Z,9.36
2023-05-12T03:10:20.469Z,9.25
2023-05-12T03:15:24.698Z,9.17
2023-05-12T03:20:28.877Z,9.16
2023-05-12T03:25:34.706Z,9.11
2023-05-12T03:30:38.731Z,9.02
2023-05-12T03:35:42.883Z,9.00
2023-05-12T03:40:52.006Z,8.95
2023-05-12T03:45:55.881Z,8.93
2023-05-12T03:50:59.845Z,8.93
2023-05-12T03:56:07.057Z,8.98
2023-05-12T04:01:09.878Z,9.05
2023-05-12T04:06:13.491Z,9.07
2023-05-12T04:11:17.527Z,9.06
2023-05-12T04:16:22.175Z,9.04
2023-05-12T04:21:26.193Z,8.97
2023-05-12T04:26:30.307Z,8.99
2023-05-12T04:31:34.205Z,9.07
2023-05-12T04:36:37.920Z,9.10
2023-05-12T04:41:41.879Z,9.16
2023-05-12T04:46:45.706Z,9.21
2023-05-12T04:51:49.842Z,9.27
2023-05-12T04:56:54.310Z,9.32
2023-05-12T05:01:59.229Z,9.35
2023-05-12T05:07:03.671Z,9.36
2023-05-12T05:12:09.032Z,9.42
2023-05-12T05:17:13.165Z,9.55
2023-05-12T05:22:17.527Z,9.65
2023-05-12T05:27:22.119Z,9.69
2023-05-12T05:32:26.391Z,9.75
2023-05-12T05:37:30.806Z,9.95
2023-05-12T05:42:34.618Z,10.21
2023-05-12T05:47:38.309Z,10.49
2023-05-12T05:52:42.171Z,10.69
2023-05-12T05:57:46.017Z,10.79
2023-05-12T06:02:49.877Z,10.91
2023-05-12T06:07:54.261Z,11.13
2023-05-12T06:12:57.996Z,11.28
2023-05-12T06:18:02.084Z,11.49
2023-05-12T06:23:06.370Z,11.68
2023-05-12T06:28:10.159Z,11.82
2023-05-12T06:33:14.942Z,11.96
2023-05-12T06:38:18.634Z,12.12
2023-05-12T06:43:22.960Z,12.22
2023-05-12T06:48:26.809Z,12.37
2023-05-12T06:53:31.939Z,12.53
2023-05-12T06:58:35.858Z,12.62
2023-05-12T07:03:39.968Z,12.64
2023-05-12T07:08:43.967Z,12.78
2023-05-12T07:13:48.257Z,12.89
2023-05-12T07:18:52.113Z,13.04
2023-05-12T07:23:56.041Z,13.20
2023-05-12T07:29:00.831Z,13.37
2023-05-12T07:34:05.592Z,13.52
2023-05-12T07:39:09.413Z,13.71
2023-05-12T07:44:13.108Z,13.92
2023-05-12T07:49:16.958Z,14.17
2023-05-12T07:54:20.661Z,14.39
2023-05-12T07:59:24.515Z,14.58
2023-05-12T08:04:28.534Z,14.79
2023-05-12T08:09:32.693Z,15.05
2023-05-12T08:14:37.420Z,15.34
2023-05-12T08:19:42.007Z,15.66
2023-05-12T08:24:46.487Z,15.98
2023-05-12T08:29:50.243Z,16.37
2023-05-12T08:34:54.815Z,16.69
2023-05-12T08:39:58.889Z,16.99
2023-05-12T08:45:04.138Z,17.33
2023-05-12T08:50:11.208Z,17.64
2023-05-12T08:55:15.484Z,17.80
2023-05-12T09:00:22.341Z,17.93
2023-05-12T09:05:29.375Z,18.08
2023-05-12T09:10:35.501Z,18.22
2023-05-12T09:15:44.926Z,18.30
2023-05-12T09:20:48.825Z,18.43
2023-05-12T09:26:01.168Z,18.51
2023-05-12T09:31:16.248Z,18.60
2023-05-12T09:36:21.311Z,18.59
2023-05-12T09:41:25.418Z,18.56
2023-05-12T09:46:29.673Z,18.67
2023-05-12T09:51:33.474Z,18.72
2023-05-12T09:56:38.755Z,18.56
2023-05-12T10:01:43.036Z,18.45
2023-05-12T10:06:47.697Z,18.31
2023-05-12T10:11:53.789Z,18.26
2023-05-12T10:16:57.717Z,18.29
2023-05-12T10:22:02.859Z,18.21
2023-05-12T10:27:08.206Z,18.09
2023-05-12T10:32:12.595Z,18.07
2023-05-12T10:37:16.958Z,18.06
2023-05-12T10:48:09.514Z,18.03
2023-05-12T10:53:13.718Z,18.02
2023-05-12T10:58:19.537Z,18.10
2023-05-12T11:03:25.599Z,18.22
2023-05-12T11:08:32.433Z,18.29
2023-05-12T11:13:36.970Z,18.33
2023-05-12T11:18:40.803Z,18.31
2023-05-12T11:23:50.196Z,18.27
2023-05-12T11:28:54.208Z,18.26
2023-05-12T11:34:11.858Z,18.34
2023-05-12T11:39:18.354Z,18.32
2023-05-12T11:44:23.602Z,18.31
2023-05-12T11:49:28.661Z,18.39
2023-05-12T11:54:32.595Z,18.56
2023-05-12T11:59:36.838Z,18.62
2023-05-12T12:04:41.927Z,18.66
2023-05-12T12:09:45.792Z,18.79
2023-05-12T12:14:49.652Z,18.81
2023-05-12T12:19:53.632Z,18.78
2023-05-12T12:24:57.610Z,18.66
2023-05-12T12:30:02.007Z,18.65
2023-05-12T12:35:07.586Z,18.60
2023-05-12T12:40:12.995Z,18.47
2023-05-12T12:45:19.357Z,18.43
2023-05-12T12:50:26.441Z,18.54
2023-05-12T12:55:31.497Z,18.69
2023-05-12T13:00:36.176Z,18.83
2023-05-12T13:05:40.174Z,18.99
2023-05-12T13:10:43.972Z,19.09
2023-05-12T13:15:50.052Z,19.07
2023-05-12T13:20:54.163Z,18.98
2023-05-12T13:25:58.805Z,18.91
2023-05-12T13:31:02.711Z,18.89
2023-05-12T13:36:08.316Z,18.93
2023-05-12T13:41:12.415Z,18.94
2023-05-12T13:46:16.130Z,18.87
2023-05-12T13:51:20.787Z,18.90
2023-05-12T13:56:25.226Z,18.86
2023-05-12T14:01:31.011Z,18.75
2023-05-12T14:06:36.145Z,18.71
2023-05-12T14:11:40.691Z,18.60
2023-05-12T14:16:44.792Z,18.51
2023-05-12T14:21:49.362Z,18.51
2023-05-12T14:26:54.338Z,18.55
2023-05-12T14:31:59.379Z,18.62
2023-05-12T14:37:03.283Z,18.68
2023-05-12T14:42:08.535Z,18.69
2023-05-12T14:47:12.465Z,18.70
2023-05-12T14:52:16.304Z,18.74
2023-05-12T14:57:20.678Z,18.75
2023-05-12T15:02:24.879Z,18.71
2023-05-12T15:07:29.588Z,18.64
2023-05-12T15:12:33.578Z,18.55
2023-05-12T15:17:38.128Z,18.47
2023-05-12T15:22:42.221Z,18.40
2023-05-12T15:27:46.183Z,18.33
2023-05-12T15:32:50.465Z,18.26
2023-05-12T15:37:54.349Z,18.22
2023-05-12T15:42:58.545Z,18.17
2023-05-12T15:48:02.757Z,18.14
2023-05-12T15:53:07.162Z,18.13
2023-05-12T15:58:11.523Z,18.10
2023-05-12T16:03:15.501Z,18.08
2023-05-12T16:08:20.323Z,18.04
2023-05-12T16:13:24.305Z,18.02
2023-05-12T16:18:30.144Z,18.01
2023-05-12T16:23:33.796Z,17.95
2023-05-12T16:28:37.566Z,17.88
2023-05-12T16:33:41.466Z,17.80
2023-05-12T16:38:45.549Z,17.75
2023-05-12T16:43:49.922Z,17.72
2023-05-12T16:48:54.035Z,17.69
2023-05-12T16:53:57.898Z,17.63
2023-05-12T16:59:02.220Z,17.55
2023-05-12T17:04:07.351Z,17.49
2023-05-12T17:09:11.288Z,17.45
2023-05-12T17:14:16.232Z,17.35
2023-05-12T17:19:21.751Z,17.25
2023-05-12T17:24:26.347Z,17.17
2023-05-12T17:29:31.216Z,17.06
2023-05-12T17:34:35.638Z,16.96
2023-05-12T17:39:41.605Z,16.83
2023-05-12T17:44:46.139Z,16.70
2023-05-12T17:49:50.033Z,16.58
2023-05-12T17:54:56.547Z,16.45
2023-05-12T18:00:03.544Z,16.35
2023-05-12T18:05:09.411Z,16.26
2023-05-12T18:10:13.799Z,16.13
2023-05-12T18:15:19.395Z,16.01
2023-05-12T18:20:23.360Z,15.91
2023-05-12T18:25:27.693Z,15.80
2023-05-12T18:30:31.750Z,15.68
2023-05-12T18:35:35.568Z,15.58
2023-05-12T18:40:40.129Z,15.51
2023-05-12T18:45:43.817Z,15.39
2023-05-12T18:50:47.718Z,15.27
2023-05-12T18:55:51.490Z,15.15
2023-05-12T19:00:55.232Z,15.05
2023-05-12T19:05:59.765Z,14.96
2023-05-12T19:11:03.746Z,14.88
2023-05-12T19:16:08.140Z,14.81
2023-05-12T19:21:12.883Z,14.72
2023-05-12T19:26:16.746Z,14.62
2023-05-12T19:31:20.559Z,14.53
2023-05-12T19:36:24.395Z,14.48
2023-05-12T19:41:28.964Z,14.43
2023-05-12T19:46:33.368Z,14.40
2023-05-12T19:51:37.711Z,14.37
2023-05-12T19:56:41.465Z,14.32
2023-05-12T20:01:45.557Z,14.28
2023-05-12T20:06:50.130Z,14.24
2023-05-12T20:11:54.641Z,14.22
2023-05-12T20:17:05.072Z,14.21
2023-05-12T20:22:10.038Z,14.20
2023-05-12T20:27:13.882Z,14.15
2023-05-12T20:32:17.732Z,14.13
2023-05-12T20:37:21.939Z,14.11
2023-05-12T20:42:25.788Z,14.07
2023-05-12T20:47:30.443Z,14.03
2023-05-12T20:52:36.500Z,13.98
2023-05-12T20:57:41.018Z,13.92
2023-05-12T21:02:45.249Z,13.87
2023-05-12T21:07:49.684Z,13.81
2023-05-12T21:12:53.547Z,13.78
2023-05-12T21:17:58.455Z,13.75
2023-05-12T21:23:02.920Z,13.70
2023-05-12T21:28:07.175Z,13.64
2023-05-12T21:33:11.179Z,13.59
2023-05-12T21:38:15.229Z,13.52
2023-05-12T21:43:19.028Z,13.50
2023-05-12T21:48:24.364Z,13.43
2023-05-12T21:53:29.032Z,13.35
2023-05-12T21:58:33.103Z,13.21
2023-05-12T22:03:37.491Z,13.14
2023-05-12T22:08:41.853Z,13.08
2023-05-12T22:13:45.748Z,13.05
2023-05-12T22:18:49.552Z,12.97
2023-05-12T22:23:53.818Z,12.94
2023-05-12T22:28:57.581Z,12.90
2023-05-12T22:34:01.615Z,12.80
2023-05-12T22:39:05.721Z,12.72
2023-05-12T22:44:09.624Z,12.62
2023-05-12T22:49:13.438Z,12.53
2023-05-12T22:54:17.184Z,12.46
2023-05-12T22:59:20.909Z,12.41
2023-05-12T23:04:25.155Z,12.34
2023-05-12T23:09:29.348Z,12.27
2023-05-12T23:14:33.568Z,12.18
2023-05-12T23:19:39.031Z,12.13
2023-05-12T23:24:43.810Z,12.03
2023-05-12T23:29:47.694Z,11.89
2023-05-12T23:34:51.680Z,11.86
2023-05-12T23:39:55.826Z,11.83
2023-05-12T23:45:00.415Z,11.77
2023-05-12T23:50:06.480Z,11.70
2023-05-12T23:55:11.655Z,11.60
